Terminal Aerodrome Forecast
Issued by NWS

Home | Current Version | Previous Version | Text Only | Print | Product List | Glossary On
Versions: 1 2 3 4 5 6 7 8 9 10 11 12 13 14
000
FTUS45 KFGZ 140500
TAFGCN
TAF
KGCN 140538Z 1406/1506 VRB06KT P6SM SCT070 BKN120
     FM141700 VRB06KT P6SM SCT080 BKN100
      TEMPO 1419/1423 VRB15G25KT 5SM TSRA BKN050CB=

USA.gov is the U.S. government's official web portal to all federal, state and local government web resources and services.